Карточка аэропорта UATT

Внимание!
Информация на этой странице в стадии наполнения.
Если вы не увидели какой-то информации, или заметили неточность - пожалуйста сообщите нам!
Спасибо!
Команда RU-STAFF
Название аэропортаАктобе
Название аэропорта (англ.)Aktobe
Превышение738 ft. (224.9 m.)
Координаты50°14.748', 57°12.402'
Высота перехода10000ft
Эшелон переходаFL120, QNH<733:FL130
Коды ответчика3440-3447, 3540-3547
Зона ОрВДАктобе РПИ (UATT)
Данные METARUATT 250330Z 18006MPS 9999 SCT022 22/18 Q0993 NOSIG RMK QFE725/0967
Проноз погоды (TAF)UATT 242300Z 2500/2524 10002MPS 3100 -SHRA BKN015CB TX23/2510Z TN18/2501Z TEMPO 2500/2506 17007MPS -TSRA BKN007 BKN015CB TEMPO 2506/2512 26015MPS -TSRA TEMPO 2512/2518 28010MPS FM251800 30005MPS 9999 BKN033CB
NOTAMshow/hide NOTAM
AWOS   TABLE

Информация о ВПП

ВПП Длина ВПП (м.) Покрытие Курс ВПП Частота ILS
313202Бетон315111.7
133202Бетон135111.7

Диспетчерские позиции




Спутниковое изображение